sensor_id;sensor_type;location;lat;lon;timestamp;P1;durP1;ratioP1;P2;durP2;ratioP2
76818;SDS011;65772;51.096;17.006;2024-03-23T00:55:00;23.00;;;10.70;;
76818;SDS011;65772;51.096;17.006;2024-03-23T00:57:30;19.20;;;10.90;;
76818;SDS011;65772;51.096;17.006;2024-03-23T00:59:59;19.30;;;9.70;;
76818;SDS011;65772;51.096;17.006;2024-03-23T01:02:29;21.70;;;11.10;;
76818;SDS011;65772;51.096;17.006;2024-03-23T01:04:59;20.20;;;10.70;;
76818;SDS011;65772;51.096;17.006;2024-03-23T01:07:28;20.30;;;10.50;;
76818;SDS011;65772;51.096;17.006;2024-03-23T01:09:58;20.60;;;10.20;;
76818;SDS011;65772;51.096;17.006;2024-03-23T01:12:27;18.40;;;10.30;;
76818;SDS011;65772;51.096;17.006;2024-03-23T01:14:57;20.00;;;10.30;;
76818;SDS011;65772;51.096;17.006;2024-03-23T01:17:26;19.20;;;10.00;;
76818;SDS011;65772;51.096;17.006;2024-03-23T01:19:56;20.40;;;10.90;;
76818;SDS011;65772;51.096;17.006;2024-03-23T01:22:26;19.90;;;10.90;;
76818;SDS011;65772;51.096;17.006;2024-03-23T01:24:55;19.90;;;10.00;;
76818;SDS011;65772;51.096;17.006;2024-03-23T01:27:25;21.30;;;10.60;;
76818;SDS011;65772;51.096;17.006;2024-03-23T01:29:54;16.80;;;10.30;;
76818;SDS011;65772;51.096;17.006;2024-03-23T01:32:24;20.00;;;9.80;;
76818;SDS011;65772;51.096;17.006;2024-03-23T01:34:53;16.50;;;9.50;;
76818;SDS011;65772;51.096;17.006;2024-03-23T01:37:23;18.20;;;9.90;;
76818;SDS011;65772;51.096;17.006;2024-03-23T01:39:53;16.70;;;8.70;;
76818;SDS011;65772;51.096;17.006;2024-03-23T01:42:22;18.00;;;10.10;;
76818;SDS011;65772;51.096;17.006;2024-03-23T01:44:52;15.60;;;8.80;;
76818;SDS011;65772;51.096;17.006;2024-03-23T01:47:21;17.60;;;9.40;;
76818;SDS011;65772;51.096;17.006;2024-03-23T01:49:51;15.80;;;9.30;;
76818;SDS011;65772;51.096;17.006;2024-03-23T01:52:21;16.40;;;8.80;;
76818;SDS011;65772;51.096;17.006;2024-03-23T01:54:51;14.90;;;8.70;;
76818;SDS011;65772;51.096;17.006;2024-03-23T01:57:20;15.70;;;9.40;;
76818;SDS011;65772;51.096;17.006;2024-03-23T01:59:50;17.80;;;9.20;;
76818;SDS011;65772;51.096;17.006;2024-03-23T02:02:23;19.10;;;9.40;;
76818;SDS011;65772;51.096;17.006;2024-03-23T02:04:53;13.60;;;8.10;;
76818;SDS011;65772;51.096;17.006;2024-03-23T02:07:22;15.20;;;8.90;;
76818;SDS011;65772;51.096;17.006;2024-03-23T02:09:52;17.60;;;8.80;;
76818;SDS011;65772;51.096;17.006;2024-03-23T02:12:23;14.20;;;8.60;;
76818;SDS011;65772;51.096;17.006;2024-03-23T02:14:52;16.60;;;8.80;;
76818;SDS011;65772;51.096;17.006;2024-03-23T02:17:22;15.00;;;8.70;;
76818;SDS011;65772;51.096;17.006;2024-03-23T02:19:51;16.80;;;8.90;;
76818;SDS011;65772;51.096;17.006;2024-03-23T02:22:21;16.70;;;8.20;;
76818;SDS011;65772;51.096;17.006;2024-03-23T02:24:51;18.90;;;9.70;;
76818;SDS011;65772;51.096;17.006;2024-03-23T02:27:20;18.40;;;9.70;;
76818;SDS011;65772;51.096;17.006;2024-03-23T02:29:50;17.20;;;9.30;;
76818;SDS011;65772;51.096;17.006;2024-03-23T02:32:20;15.80;;;9.00;;
76818;SDS011;65772;51.096;17.006;2024-03-23T02:34:49;15.80;;;8.50;;
76818;SDS011;65772;51.096;17.006;2024-03-23T02:37:19;17.60;;;9.70;;
76818;SDS011;65772;51.096;17.006;2024-03-23T02:39:48;16.40;;;8.90;;
76818;SDS011;65772;51.096;17.006;2024-03-23T02:42:18;15.50;;;8.90;;
76818;SDS011;65772;51.096;17.006;2024-03-23T02:44:47;17.90;;;9.90;;
76818;SDS011;65772;51.096;17.006;2024-03-23T02:47:17;16.90;;;9.70;;
76818;SDS011;65772;51.096;17.006;2024-03-23T02:49:46;16.70;;;8.70;;
76818;SDS011;65772;51.096;17.006;2024-03-23T02:52:16;16.60;;;9.00;;
76818;SDS011;65772;51.096;17.006;2024-03-23T02:54:45;18.50;;;9.20;;
76818;SDS011;65772;51.096;17.006;2024-03-23T02:57:15;15.90;;;8.90;;
76818;SDS011;65772;51.096;17.006;2024-03-23T02:59:44;16.30;;;9.00;;
76818;SDS011;65772;51.096;17.006;2024-03-23T03:02:15;16.10;;;8.40;;
76818;SDS011;65772;51.096;17.006;2024-03-23T03:04:44;15.20;;;8.20;;
76818;SDS011;65772;51.096;17.006;2024-03-23T03:07:14;15.80;;;9.00;;
76818;SDS011;65772;51.096;17.006;2024-03-23T03:09:44;15.50;;;8.40;;
76818;SDS011;65772;51.096;17.006;2024-03-23T03:12:13;16.20;;;8.90;;
76818;SDS011;65772;51.096;17.006;2024-03-23T03:14:43;16.40;;;9.00;;
76818;SDS011;65772;51.096;17.006;2024-03-23T03:17:12;18.00;;;9.40;;
76818;SDS011;65772;51.096;17.006;2024-03-23T03:19:42;17.10;;;9.50;;
76818;SDS011;65772;51.096;17.006;2024-03-23T03:22:12;18.00;;;10.80;;
76818;SDS011;65772;51.096;17.006;2024-03-23T03:24:41;16.50;;;9.00;;
76818;SDS011;65772;51.096;17.006;2024-03-23T03:27:11;15.60;;;9.30;;
76818;SDS011;65772;51.096;17.006;2024-03-23T03:29:41;18.80;;;9.80;;
76818;SDS011;65772;51.096;17.006;2024-03-23T03:32:10;16.70;;;9.20;;
76818;SDS011;65772;51.096;17.006;2024-03-23T03:34:40;16.10;;;8.80;;
76818;SDS011;65772;51.096;17.006;2024-03-23T03:37:09;17.00;;;9.00;;
76818;SDS011;65772;51.096;17.006;2024-03-23T03:39:39;15.10;;;8.90;;
76818;SDS011;65772;51.096;17.006;2024-03-23T03:42:08;17.80;;;9.20;;
76818;SDS011;65772;51.096;17.006;2024-03-23T03:44:38;15.90;;;8.90;;
76818;SDS011;65772;51.096;17.006;2024-03-23T03:47:07;16.70;;;8.80;;
76818;SDS011;65772;51.096;17.006;2024-03-23T03:49:37;19.20;;;9.70;;
76818;SDS011;65772;51.096;17.006;2024-03-23T03:52:06;17.00;;;9.50;;
76818;SDS011;65772;51.096;17.006;2024-03-23T03:54:36;16.10;;;8.90;;
76818;SDS011;65772;51.096;17.006;2024-03-23T03:57:05;16.40;;;9.20;;
76818;SDS011;65772;51.096;17.006;2024-03-23T03:59:35;17.00;;;9.50;;
76818;SDS011;65772;51.096;17.006;2024-03-23T04:02:04;14.40;;;8.50;;
76818;SDS011;65772;51.096;17.006;2024-03-23T04:04:34;15.70;;;8.80;;
76818;SDS011;65772;51.096;17.006;2024-03-23T04:07:03;16.30;;;9.20;;
76818;SDS011;65772;51.096;17.006;2024-03-23T04:09:33;19.60;;;8.90;;
76818;SDS011;65772;51.096;17.006;2024-03-23T04:12:03;16.90;;;9.60;;
76818;SDS011;65772;51.096;17.006;2024-03-23T04:14:33;15.70;;;9.20;;
76818;SDS011;65772;51.096;17.006;2024-03-23T04:17:03;15.40;;;9.70;;
76818;SDS011;65772;51.096;17.006;2024-03-23T04:19:33;16.70;;;8.90;;
76818;SDS011;65772;51.096;17.006;2024-03-23T04:22:02;14.50;;;9.00;;
76818;SDS011;65772;51.096;17.006;2024-03-23T04:24:32;14.70;;;9.20;;
76818;SDS011;65772;51.096;17.006;2024-03-23T04:27:01;16.10;;;9.00;;
76818;SDS011;65772;51.096;17.006;2024-03-23T04:29:31;16.90;;;9.90;;
76818;SDS011;65772;51.096;17.006;2024-03-23T04:32:01;17.30;;;9.70;;
76818;SDS011;65772;51.096;17.006;2024-03-23T04:34:31;16.20;;;8.70;;
76818;SDS011;65772;51.096;17.006;2024-03-23T04:37:01;17.50;;;9.80;;
76818;SDS011;65772;51.096;17.006;2024-03-23T04:39:31;18.20;;;9.80;;
76818;SDS011;65772;51.096;17.006;2024-03-23T04:42:00;15.70;;;8.90;;
76818;SDS011;65772;51.096;17.006;2024-03-23T04:44:30;16.10;;;9.20;;
76818;SDS011;65772;51.096;17.006;2024-03-23T04:47:00;20.60;;;9.90;;
76818;SDS011;65772;51.096;17.006;2024-03-23T04:49:30;17.00;;;8.80;;
76818;SDS011;65772;51.096;17.006;2024-03-23T04:51:59;16.90;;;9.40;;
76818;SDS011;65772;51.096;17.006;2024-03-23T04:54:31;18.10;;;9.50;;
76818;SDS011;65772;51.096;17.006;2024-03-23T04:57:00;16.00;;;9.20;;
76818;SDS011;65772;51.096;17.006;2024-03-23T04:59:30;17.00;;;9.50;;
76818;SDS011;65772;51.096;17.006;2024-03-23T05:02:00;16.60;;;9.90;;
76818;SDS011;65772;51.096;17.006;2024-03-23T05:04:29;17.50;;;9.20;;
76818;SDS011;65772;51.096;17.006;2024-03-23T05:06:59;16.60;;;9.50;;
76818;SDS011;65772;51.096;17.006;2024-03-23T05:09:29;16.50;;;9.60;;
76818;SDS011;65772;51.096;17.006;2024-03-23T05:11:59;15.70;;;8.60;;
76818;SDS011;65772;51.096;17.006;2024-03-23T05:14:29;18.50;;;8.90;;
76818;SDS011;65772;51.096;17.006;2024-03-23T05:16:59;18.00;;;9.50;;
76818;SDS011;65772;51.096;17.006;2024-03-23T05:19:29;17.00;;;9.60;;
76818;SDS011;65772;51.096;17.006;2024-03-23T05:21:59;16.50;;;9.30;;
76818;SDS011;65772;51.096;17.006;2024-03-23T05:24:28;15.60;;;9.10;;
76818;SDS011;65772;51.096;17.006;2024-03-23T05:26:58;16.70;;;9.50;;
76818;SDS011;65772;51.096;17.006;2024-03-23T05:29:27;16.50;;;9.00;;
76818;SDS011;65772;51.096;17.006;2024-03-23T05:31:57;17.90;;;9.50;;
76818;SDS011;65772;51.096;17.006;2024-03-23T05:34:26;17.20;;;9.20;;
76818;SDS011;65772;51.096;17.006;2024-03-23T05:36:56;16.50;;;9.60;;
76818;SDS011;65772;51.096;17.006;2024-03-23T05:39:26;18.80;;;9.90;;
76818;SDS011;65772;51.096;17.006;2024-03-23T05:41:56;15.40;;;9.90;;
76818;SDS011;65772;51.096;17.006;2024-03-23T05:44:26;18.10;;;9.70;;
76818;SDS011;65772;51.096;17.006;2024-03-23T05:46:55;18.60;;;10.50;;
76818;SDS011;65772;51.096;17.006;2024-03-23T05:49:25;19.50;;;9.70;;
76818;SDS011;65772;51.096;17.006;2024-03-23T05:51:54;17.90;;;10.00;;
76818;SDS011;65772;51.096;17.006;2024-03-23T05:54:24;19.90;;;10.50;;
76818;SDS011;65772;51.096;17.006;2024-03-23T05:56:55;19.80;;;10.70;;
76818;SDS011;65772;51.096;17.006;2024-03-23T05:59:26;20.50;;;10.50;;
76818;SDS011;65772;51.096;17.006;2024-03-23T06:01:55;21.70;;;10.90;;
76818;SDS011;65772;51.096;17.006;2024-03-23T06:04:25;18.60;;;10.60;;
76818;SDS011;65772;51.096;17.006;2024-03-23T06:06:54;21.80;;;10.20;;
76818;SDS011;65772;51.096;17.006;2024-03-23T06:09:24;18.50;;;10.00;;
76818;SDS011;65772;51.096;17.006;2024-03-23T06:11:54;18.10;;;9.80;;
76818;SDS011;65772;51.096;17.006;2024-03-23T06:14:23;17.60;;;10.40;;
76818;SDS011;65772;51.096;17.006;2024-03-23T06:16:53;23.30;;;11.20;;
76818;SDS011;65772;51.096;17.006;2024-03-23T06:19:22;15.40;;;9.40;;
76818;SDS011;65772;51.096;17.006;2024-03-23T06:21:54;17.80;;;9.70;;
76818;SDS011;65772;51.096;17.006;2024-03-23T06:24:23;16.40;;;9.50;;
76818;SDS011;65772;51.096;17.006;2024-03-23T06:26:53;18.30;;;10.00;;
76818;SDS011;65772;51.096;17.006;2024-03-23T06:29:22;18.50;;;9.50;;
76818;SDS011;65772;51.096;17.006;2024-03-23T06:31:55;18.40;;;10.40;;
76818;SDS011;65772;51.096;17.006;2024-03-23T06:34:25;15.60;;;9.30;;
76818;SDS011;65772;51.096;17.006;2024-03-23T06:36:54;16.70;;;10.00;;
76818;SDS011;65772;51.096;17.006;2024-03-23T06:39:24;19.60;;;11.20;;
76818;SDS011;65772;51.096;17.006;2024-03-23T06:41:53;17.70;;;10.40;;
76818;SDS011;65772;51.096;17.006;2024-03-23T06:44:23;19.40;;;10.30;;
76818;SDS011;65772;51.096;17.006;2024-03-23T06:46:53;19.20;;;10.50;;
76818;SDS011;65772;51.096;17.006;2024-03-23T06:49:22;17.40;;;10.00;;
76818;SDS011;65772;51.096;17.006;2024-03-23T06:51:52;19.70;;;10.20;;
76818;SDS011;65772;51.096;17.006;2024-03-23T06:54:22;18.40;;;10.30;;
76818;SDS011;65772;51.096;17.006;2024-03-23T06:56:52;17.50;;;10.20;;
76818;SDS011;65772;51.096;17.006;2024-03-23T06:59:21;18.20;;;10.70;;
76818;SDS011;65772;51.096;17.006;2024-03-23T07:01:51;16.80;;;9.60;;
76818;SDS011;65772;51.096;17.006;2024-03-23T07:04:20;17.10;;;9.70;;
76818;SDS011;65772;51.096;17.006;2024-03-23T07:06:50;15.80;;;9.00;;
76818;SDS011;65772;51.096;17.006;2024-03-23T07:09:19;15.80;;;10.20;;
76818;SDS011;65772;51.096;17.006;2024-03-23T07:11:54;17.40;;;10.00;;
76818;SDS011;65772;51.096;17.006;2024-03-23T07:14:24;14.90;;;9.50;;
76818;SDS011;65772;51.096;17.006;2024-03-23T07:16:54;18.00;;;10.10;;
76818;SDS011;65772;51.096;17.006;2024-03-23T07:19:23;13.80;;;8.80;;
76818;SDS011;65772;51.096;17.006;2024-03-23T07:21:53;14.40;;;8.90;;
76818;SDS011;65772;51.096;17.006;2024-03-23T07:24:23;17.10;;;8.70;;
76818;SDS011;65772;51.096;17.006;2024-03-23T07:26:53;14.90;;;9.00;;
76818;SDS011;65772;51.096;17.006;2024-03-23T07:31:52;16.80;;;8.90;;
76818;SDS011;65772;51.096;17.006;2024-03-23T07:34:22;14.60;;;9.00;;
76818;SDS011;65772;51.096;17.006;2024-03-23T07:36:51;12.20;;;7.80;;
76818;SDS011;65772;51.096;17.006;2024-03-23T07:39:21;15.20;;;8.90;;
76818;SDS011;65772;51.096;17.006;2024-03-23T07:41:51;15.80;;;8.80;;
76818;SDS011;65772;51.096;17.006;2024-03-23T07:44:21;16.50;;;9.30;;
76818;SDS011;65772;51.096;17.006;2024-03-23T07:46:50;16.20;;;9.30;;
76818;SDS011;65772;51.096;17.006;2024-03-23T07:49:20;15.70;;;9.30;;
76818;SDS011;65772;51.096;17.006;2024-03-23T07:51:49;14.40;;;9.10;;
76818;SDS011;65772;51.096;17.006;2024-03-23T07:54:19;18.10;;;9.00;;
76818;SDS011;65772;51.096;17.006;2024-03-23T07:56:49;17.70;;;9.00;;
76818;SDS011;65772;51.096;17.006;2024-03-23T07:59:19;15.30;;;9.40;;
76818;SDS011;65772;51.096;17.006;2024-03-23T08:01:48;17.90;;;9.20;;
76818;SDS011;65772;51.096;17.006;2024-03-23T08:04:18;15.50;;;9.30;;
76818;SDS011;65772;51.096;17.006;2024-03-23T08:06:48;17.50;;;9.70;;
76818;SDS011;65772;51.096;17.006;2024-03-23T08:09:17;15.00;;;8.90;;
76818;SDS011;65772;51.096;17.006;2024-03-23T08:11:47;14.90;;;9.50;;
76818;SDS011;65772;51.096;17.006;2024-03-23T08:14:17;15.80;;;8.40;;
76818;SDS011;65772;51.096;17.006;2024-03-23T08:16:47;15.20;;;8.70;;
76818;SDS011;65772;51.096;17.006;2024-03-23T08:19:17;13.60;;;8.20;;
76818;SDS011;65772;51.096;17.006;2024-03-23T08:21:47;15.80;;;8.80;;
76818;SDS011;65772;51.096;17.006;2024-03-23T08:24:18;15.10;;;8.80;;
76818;SDS011;65772;51.096;17.006;2024-03-23T08:26:48;14.10;;;8.80;;
76818;SDS011;65772;51.096;17.006;2024-03-23T08:29:17;15.10;;;9.00;;
76818;SDS011;65772;51.096;17.006;2024-03-23T08:31:47;16.00;;;9.00;;
76818;SDS011;65772;51.096;17.006;2024-03-23T08:34:16;14.60;;;9.20;;
76818;SDS011;65772;51.096;17.006;2024-03-23T08:36:46;14.60;;;8.50;;
76818;SDS011;65772;51.096;17.006;2024-03-23T08:39:15;15.20;;;8.90;;
76818;SDS011;65772;51.096;17.006;2024-03-23T08:41:45;15.60;;;8.30;;
76818;SDS011;65772;51.096;17.006;2024-03-23T08:44:15;14.20;;;8.70;;
76818;SDS011;65772;51.096;17.006;2024-03-23T08:46:44;14.40;;;9.00;;
76818;SDS011;65772;51.096;17.006;2024-03-23T08:49:14;13.70;;;8.30;;
76818;SDS011;65772;51.096;17.006;2024-03-23T08:51:45;13.40;;;7.80;;
76818;SDS011;65772;51.096;17.006;2024-03-23T08:54:14;15.90;;;8.20;;
76818;SDS011;65772;51.096;17.006;2024-03-23T08:56:44;14.10;;;8.40;;
76818;SDS011;65772;51.096;17.006;2024-03-23T08:59:13;13.70;;;8.60;;
76818;SDS011;65772;51.096;17.006;2024-03-23T09:01:43;14.80;;;8.70;;
76818;SDS011;65772;51.096;17.006;2024-03-23T09:04:12;12.10;;;7.90;;
76818;SDS011;65772;51.096;17.006;2024-03-23T09:06:43;13.90;;;8.20;;
76818;SDS011;65772;51.096;17.006;2024-03-23T09:09:13;13.30;;;7.70;;
76818;SDS011;65772;51.096;17.006;2024-03-23T09:11:42;13.60;;;8.10;;
76818;SDS011;65772;51.096;17.006;2024-03-23T09:14:12;13.60;;;8.60;;
76818;SDS011;65772;51.096;17.006;2024-03-23T09:16:41;14.70;;;8.40;;
76818;SDS011;65772;51.096;17.006;2024-03-23T09:19:11;13.20;;;8.30;;
76818;SDS011;65772;51.096;17.006;2024-03-23T09:21:41;14.60;;;8.20;;
76818;SDS011;65772;51.096;17.006;2024-03-23T09:24:10;13.50;;;8.00;;
76818;SDS011;65772;51.096;17.006;2024-03-23T09:26:40;12.40;;;8.20;;
76818;SDS011;65772;51.096;17.006;2024-03-23T09:29:09;12.70;;;7.80;;
76818;SDS011;65772;51.096;17.006;2024-03-23T09:31:39;14.20;;;7.90;;
76818;SDS011;65772;51.096;17.006;2024-03-23T09:34:09;13.90;;;7.60;;
76818;SDS011;65772;51.096;17.006;2024-03-23T09:36:38;11.90;;;7.80;;
76818;SDS011;65772;51.096;17.006;2024-03-23T09:39:08;13.20;;;8.10;;
76818;SDS011;65772;51.096;17.006;2024-03-23T09:41:37;13.80;;;8.00;;
76818;SDS011;65772;51.096;17.006;2024-03-23T09:44:07;13.60;;;7.60;;
76818;SDS011;65772;51.096;17.006;2024-03-23T09:46:37;13.10;;;8.60;;
76818;SDS011;65772;51.096;17.006;2024-03-23T09:49:08;12.50;;;6.90;;
76818;SDS011;65772;51.096;17.006;2024-03-23T09:51:38;14.60;;;8.30;;
76818;SDS011;65772;51.096;17.006;2024-03-23T09:54:07;16.20;;;8.20;;
76818;SDS011;65772;51.096;17.006;2024-03-23T09:56:37;11.90;;;7.90;;
76818;SDS011;65772;51.096;17.006;2024-03-23T09:59:07;11.50;;;7.60;;
76818;SDS011;65772;51.096;17.006;2024-03-23T10:01:36;12.20;;;8.40;;
76818;SDS011;65772;51.096;17.006;2024-03-23T10:04:06;13.90;;;8.00;;
76818;SDS011;65772;51.096;17.006;2024-03-23T10:06:36;11.20;;;7.30;;
76818;SDS011;65772;51.096;17.006;2024-03-23T10:09:06;12.10;;;6.90;;
76818;SDS011;65772;51.096;17.006;2024-03-23T10:11:45;12.20;;;7.70;;
76818;SDS011;65772;51.096;17.006;2024-03-23T10:14:21;12.40;;;8.00;;
76818;SDS011;65772;51.096;17.006;2024-03-23T10:17:00;12.50;;;7.90;;
76818;SDS011;65772;51.096;17.006;2024-03-23T10:19:42;13.40;;;8.10;;
76818;SDS011;65772;51.096;17.006;2024-03-23T10:22:12;11.00;;;7.20;;
76818;SDS011;65772;51.096;17.006;2024-03-23T10:24:44;11.90;;;7.50;;
76818;SDS011;65772;51.096;17.006;2024-03-23T10:27:16;11.90;;;7.40;;
76818;SDS011;65772;51.096;17.006;2024-03-23T10:29:47;11.50;;;7.60;;
76818;SDS011;65772;51.096;17.006;2024-03-23T10:32:17;12.10;;;6.90;;
76818;SDS011;65772;51.096;17.006;2024-03-23T10:34:47;16.80;;;8.90;;
76818;SDS011;65772;51.096;17.006;2024-03-23T10:37:16;13.80;;;8.70;;
76818;SDS011;65772;51.096;17.006;2024-03-23T10:39:47;9.90;;;5.50;;
76818;SDS011;65772;51.096;17.006;2024-03-23T10:42:16;13.20;;;6.90;;
76818;SDS011;65772;51.096;17.006;2024-03-23T10:47:17;12.40;;;6.30;;
76818;SDS011;65772;51.096;17.006;2024-03-23T10:49:47;10.60;;;7.20;;
76818;SDS011;65772;51.096;17.006;2024-03-23T10:52:16;9.90;;;5.90;;
76818;SDS011;65772;51.096;17.006;2024-03-23T10:54:46;10.90;;;6.60;;
76818;SDS011;65772;51.096;17.006;2024-03-23T10:57:20;14.10;;;8.60;;
76818;SDS011;65772;51.096;17.006;2024-03-23T10:59:54;13.20;;;7.90;;
76818;SDS011;65772;51.096;17.006;2024-03-23T11:02:24;15.00;;;8.10;;
76818;SDS011;65772;51.096;17.006;2024-03-23T11:04:56;11.80;;;7.20;;
76818;SDS011;65772;51.096;17.006;2024-03-23T11:07:32;12.20;;;7.70;;
76818;SDS011;65772;51.096;17.006;2024-03-23T11:10:02;12.70;;;7.40;;
76818;SDS011;65772;51.096;17.006;2024-03-23T11:12:56;12.30;;;6.60;;
76818;SDS011;65772;51.096;17.006;2024-03-23T11:15:25;10.90;;;6.80;;
76818;SDS011;65772;51.096;17.006;2024-03-23T11:18:06;11.80;;;6.10;;
76818;SDS011;65772;51.096;17.006;2024-03-23T11:20:36;13.20;;;7.10;;
76818;SDS011;65772;51.096;17.006;2024-03-23T11:23:06;11.60;;;6.80;;
76818;SDS011;65772;51.096;17.006;2024-03-23T11:25:35;11.10;;;6.90;;
76818;SDS011;65772;51.096;17.006;2024-03-23T11:28:11;11.50;;;6.40;;
76818;SDS011;65772;51.096;17.006;2024-03-23T11:30:41;10.40;;;6.40;;
76818;SDS011;65772;51.096;17.006;2024-03-23T11:33:11;9.60;;;5.80;;
76818;SDS011;65772;51.096;17.006;2024-03-23T11:35:41;11.00;;;6.10;;
76818;SDS011;65772;51.096;17.006;2024-03-23T11:38:11;8.90;;;5.30;;
76818;SDS011;65772;51.096;17.006;2024-03-23T11:40:42;8.80;;;5.00;;
76818;SDS011;65772;51.096;17.006;2024-03-23T11:43:13;9.00;;;5.30;;
76818;SDS011;65772;51.096;17.006;2024-03-23T11:45:44;8.90;;;5.10;;
76818;SDS011;65772;51.096;17.006;2024-03-23T11:48:19;8.60;;;4.90;;
76818;SDS011;65772;51.096;17.006;2024-03-23T11:50:50;6.80;;;4.40;;
76818;SDS011;65772;51.096;17.006;2024-03-23T11:53:22;8.90;;;4.60;;
76818;SDS011;65772;51.096;17.006;2024-03-23T11:58:23;9.40;;;4.50;;
76818;SDS011;65772;51.096;17.006;2024-03-23T12:00:55;7.50;;;4.90;;
76818;SDS011;65772;51.096;17.006;2024-03-23T12:03:26;6.60;;;3.90;;
76818;SDS011;65772;51.096;17.006;2024-03-23T12:05:57;6.90;;;4.50;;
76818;SDS011;65772;51.096;17.006;2024-03-23T12:08:30;7.60;;;4.20;;
76818;SDS011;65772;51.096;17.006;2024-03-23T12:11:06;11.30;;;4.00;;
76818;SDS011;65772;51.096;17.006;2024-03-23T12:16:12;5.30;;;3.70;;
76818;SDS011;65772;51.096;17.006;2024-03-23T12:18:44;6.80;;;3.70;;
76818;SDS011;65772;51.096;17.006;2024-03-23T12:21:15;6.60;;;3.40;;
76818;SDS011;65772;51.096;17.006;2024-03-23T12:23:45;6.10;;;3.40;;
76818;SDS011;65772;51.096;17.006;2024-03-23T12:26:16;5.30;;;3.30;;
76818;SDS011;65772;51.096;17.006;2024-03-23T12:28:47;6.50;;;3.70;;
76818;SDS011;65772;51.096;17.006;2024-03-23T12:31:16;7.40;;;3.80;;
76818;SDS011;65772;51.096;17.006;2024-03-23T12:33:46;5.80;;;3.70;;
76818;SDS011;65772;51.096;17.006;2024-03-23T12:36:15;6.10;;;3.50;;
76818;SDS011;65772;51.096;17.006;2024-03-23T12:38:45;8.00;;;3.70;;
76818;SDS011;65772;51.096;17.006;2024-03-23T12:41:14;7.20;;;3.20;;
76818;SDS011;65772;51.096;17.006;2024-03-23T12:43:43;7.90;;;3.10;;
76818;SDS011;65772;51.096;17.006;2024-03-23T12:46:13;5.70;;;3.10;;
76818;SDS011;65772;51.096;17.006;2024-03-23T12:48:42;5.00;;;3.30;;
76818;SDS011;65772;51.096;17.006;2024-03-23T12:51:13;5.30;;;3.00;;
76818;SDS011;65772;51.096;17.006;2024-03-23T12:53:43;6.80;;;3.80;;
76818;SDS011;65772;51.096;17.006;2024-03-23T12:56:12;5.50;;;3.60;;
76818;SDS011;65772;51.096;17.006;2024-03-23T12:58:42;6.60;;;4.00;;
76818;SDS011;65772;51.096;17.006;2024-03-23T13:01:12;6.40;;;3.60;;
76818;SDS011;65772;51.096;17.006;2024-03-23T13:03:41;7.80;;;4.40;;
76818;SDS011;65772;51.096;17.006;2024-03-23T13:06:11;8.10;;;3.80;;
76818;SDS011;65772;51.096;17.006;2024-03-23T13:08:41;11.20;;;3.00;;
76818;SDS011;65772;51.096;17.006;2024-03-23T13:11:11;6.60;;;2.80;;
76818;SDS011;65772;51.096;17.006;2024-03-23T13:13:42;7.20;;;3.30;;
76818;SDS011;65772;51.096;17.006;2024-03-23T13:16:12;9.00;;;3.70;;
76818;SDS011;65772;51.096;17.006;2024-03-23T13:18:41;7.10;;;3.50;;
76818;SDS011;65772;51.096;17.006;2024-03-23T13:21:11;7.20;;;3.40;;
76818;SDS011;65772;51.096;17.006;2024-03-23T13:23:40;7.90;;;3.70;;
76818;SDS011;65772;51.096;17.006;2024-03-23T13:26:12;6.00;;;3.60;;
76818;SDS011;65772;51.096;17.006;2024-03-23T13:28:42;7.30;;;3.80;;
76818;SDS011;65772;51.096;17.006;2024-03-23T13:31:12;8.10;;;4.00;;
76818;SDS011;65772;51.096;17.006;2024-03-23T13:33:42;6.30;;;3.70;;
76818;SDS011;65772;51.096;17.006;2024-03-23T13:36:11;6.30;;;3.60;;
76818;SDS011;65772;51.096;17.006;2024-03-23T13:38:41;6.10;;;3.90;;
76818;SDS011;65772;51.096;17.006;2024-03-23T13:41:10;6.10;;;3.00;;
76818;SDS011;65772;51.096;17.006;2024-03-23T13:43:40;7.90;;;3.30;;
76818;SDS011;65772;51.096;17.006;2024-03-23T13:46:09;4.90;;;2.40;;
76818;SDS011;65772;51.096;17.006;2024-03-23T13:48:39;5.80;;;2.60;;
76818;SDS011;65772;51.096;17.006;2024-03-23T13:51:09;6.10;;;2.50;;
76818;SDS011;65772;51.096;17.006;2024-03-23T13:53:39;7.50;;;4.00;;
76818;SDS011;65772;51.096;17.006;2024-03-23T13:56:09;5.40;;;3.30;;
76818;SDS011;65772;51.096;17.006;2024-03-23T13:58:40;7.10;;;2.70;;
76818;SDS011;65772;51.096;17.006;2024-03-23T14:01:14;5.10;;;2.40;;
76818;SDS011;65772;51.096;17.006;2024-03-23T14:03:44;4.10;;;2.10;;
76818;SDS011;65772;51.096;17.006;2024-03-23T14:06:14;5.00;;;2.10;;
76818;SDS011;65772;51.096;17.006;2024-03-23T14:08:43;4.10;;;1.80;;
76818;SDS011;65772;51.096;17.006;2024-03-23T14:15:40;2.90;;;1.00;;
76818;SDS011;65772;51.096;17.006;2024-03-23T14:18:09;2.30;;;1.10;;
76818;SDS011;65772;51.096;17.006;2024-03-23T14:20:40;3.60;;;1.20;;
76818;SDS011;65772;51.096;17.006;2024-03-23T14:23:09;2.70;;;0.80;;
76818;SDS011;65772;51.096;17.006;2024-03-23T14:25:39;3.40;;;1.30;;
76818;SDS011;65772;51.096;17.006;2024-03-23T14:28:09;2.80;;;0.90;;
76818;SDS011;65772;51.096;17.006;2024-03-23T14:30:42;1.50;;;0.90;;
76818;SDS011;65772;51.096;17.006;2024-03-23T14:33:11;2.30;;;1.10;;
76818;SDS011;65772;51.096;17.006;2024-03-23T14:35:41;2.90;;;0.90;;
76818;SDS011;65772;51.096;17.006;2024-03-23T14:38:10;1.90;;;0.80;;
76818;SDS011;65772;51.096;17.006;2024-03-23T14:40:40;1.70;;;0.90;;
76818;SDS011;65772;51.096;17.006;2024-03-23T14:43:09;1.90;;;0.60;;
76818;SDS011;65772;51.096;17.006;2024-03-23T14:45:45;2.10;;;1.00;;
76818;SDS011;65772;51.096;17.006;2024-03-23T14:48:31;2.90;;;1.10;;
76818;SDS011;65772;51.096;17.006;2024-03-23T14:51:01;3.00;;;1.40;;
76818;SDS011;65772;51.096;17.006;2024-03-23T14:53:32;1.80;;;0.70;;
76818;SDS011;65772;51.096;17.006;2024-03-23T14:56:03;2.50;;;1.00;;
76818;SDS011;65772;51.096;17.006;2024-03-23T14:58:34;2.30;;;1.10;;
76818;SDS011;65772;51.096;17.006;2024-03-23T15:01:03;5.20;;;1.50;;
76818;SDS011;65772;51.096;17.006;2024-03-23T15:03:36;2.60;;;1.30;;
76818;SDS011;65772;51.096;17.006;2024-03-23T15:06:06;2.90;;;1.70;;
76818;SDS011;65772;51.096;17.006;2024-03-23T15:08:36;2.50;;;1.30;;
76818;SDS011;65772;51.096;17.006;2024-03-23T15:11:07;6.50;;;1.30;;
76818;SDS011;65772;51.096;17.006;2024-03-23T15:13:37;3.40;;;1.40;;
76818;SDS011;65772;51.096;17.006;2024-03-23T15:16:07;3.80;;;1.50;;
76818;SDS011;65772;51.096;17.006;2024-03-23T15:18:36;2.90;;;1.50;;
76818;SDS011;65772;51.096;17.006;2024-03-23T15:21:06;4.00;;;1.90;;
76818;SDS011;65772;51.096;17.006;2024-03-23T15:23:38;2.80;;;1.50;;
76818;SDS011;65772;51.096;17.006;2024-03-23T15:26:08;2.50;;;1.40;;
76818;SDS011;65772;51.096;17.006;2024-03-23T15:28:38;3.40;;;1.40;;
76818;SDS011;65772;51.096;17.006;2024-03-23T15:31:10;7.40;;;1.90;;
76818;SDS011;65772;51.096;17.006;2024-03-23T15:33:40;3.20;;;1.50;;
76818;SDS011;65772;51.096;17.006;2024-03-23T15:36:10;3.40;;;1.40;;
76818;SDS011;65772;51.096;17.006;2024-03-23T15:38:39;2.70;;;1.20;;
76818;SDS011;65772;51.096;17.006;2024-03-23T15:41:09;2.60;;;1.20;;
76818;SDS011;65772;51.096;17.006;2024-03-23T15:43:39;2.80;;;1.00;;
76818;SDS011;65772;51.096;17.006;2024-03-23T15:46:08;4.60;;;2.00;;
76818;SDS011;65772;51.096;17.006;2024-03-23T15:48:38;2.50;;;1.40;;